Arabian — WDC2629 — position and weather

sailwx.info

Track history (hours):
 
Tides and Currents Weather Stations Pressure Air Temp Water Temp Dewpoint Dewpoint Depression Visibility Wind Speed Wind Dir Waves Ship Positions

Arabian

Owner: Kirby Inland Marine LP, Houston, TX. More information available from US FCC via Universal Licensing System and Coast Guard Vessel Documentation Center.

Last reported at 2017-Aug-22 19:42 UTC. Time now 2017-Sep-19 17:18 UTC.
Position N 29°46' W 095°06'.
Warning: this ship's position is 27 days out of date.

Length 17 m; draft 2.3 m.

Type: . MMSI: 366995770.

Date/timePositionNaut miles runAvg speedWind from/ knotsBaromVisibWave heightAir tempDewpointWater temp
2017-Aug-22 19:42N 29°46' W 095°06'1 0.3
2017-Aug-22 15:19N 29°45' W 095°06'4 0.7
2017-Aug-22 09:59N 29°47' W 095°04'6 0.1
2017-Aug-20 12:31N 29°42' W 095°01'0 5.7
2017-Aug-20 12:30N 29°42' W 095°01'5 1.3
2017-Aug-20 08:31N 29°45' W 094°56'2 5.5
2017-Aug-20 08:11N 29°43' W 094°57'1 3.8
2017-Aug-20 07:59N 29°42' W 094°56'1 2.2
2017-Aug-20 07:30N 29°42' W 094°55'3 3.4
2017-Aug-20 06:44N 29°41' W 094°58'1 4.6
2017-Aug-20 06:30N 29°42' W 094°60'7 0.4
2017-Aug-19 11:48N 29°46' W 095°06'5 1.1
2017-Aug-19 07:19N 29°45' W 095°11'2 4.9
2017-Aug-19 06:59N 29°44' W 095°09'5 1.3
2017-Aug-19 03:05N 29°47' W 095°04'0 0.2
2017-Aug-19 00:47N 29°47' W 095°04'2 0.2
2017-Aug-18 15:41N 29°46' W 095°06'0 0.0
2017-Aug-18 04:23N 29°46' W 095°05'0 0.3
2017-Aug-18 03:59N 29°46' W 095°05'0 0.0
2017-Aug-17 13:06N 29°46' W 095°05'1 5.0
2017-Aug-17 12:51N 29°45' W 095°04'2 5.0
2017-Aug-17 12:30N 29°44' W 095°03'1 1.9
2017-Aug-17 11:47N 29°44' W 095°01'0 0.0
2017-Aug-17 11:28N 29°44' W 095°01'0 0.2
2017-Aug-17 10:56N 29°44' W 095°01'3 1.7
2017-Aug-17 09:03N 29°46' W 095°04'8 0.8
2017-Aug-16 22:18N 29°44' W 095°14'3 3.7
2017-Aug-16 21:36N 29°45' W 095°11'0 4.9
2017-Aug-16 21:31N 29°45' W 095°10'3 4.8
2017-Aug-16 20:56N 29°44' W 095°07'2 4.8
2017-Aug-16 20:27N 29°46' W 095°05'0 0.0
2017-Aug-16 09:17N 29°46' W 095°06'0 0.0
2017-Aug-15 17:49N 29°46' W 095°05'1 3.7
2017-Aug-15 17:26N 29°45' W 095°06'1 0.4
2017-Aug-15 13:34N 29°46' W 095°05'2 1.1
2017-Aug-15 12:08N 29°45' W 095°06'0 0.0
2017-Aug-15 12:00N 29°45' W 095°06'1 0.1
2017-Aug-14 22:15N 29°45' W 095°06'0 0.0
2017-Aug-14 21:28N 29°45' W 095°06'1 0.0
2017-Aug-13 14:04N 29°46' W 095°04'0 4.6
2017-Aug-13 14:00N 29°46' W 095°04'2 4.6
2017-Aug-13 13:28N 29°44' W 095°02'2 4.2
2017-Aug-13 13:00N 29°42' W 095°01'2 4.4
2017-Aug-13 12:31N 29°41' W 094°59'2 3.8
2017-Aug-13 12:00N 29°41' W 094°57'1 2.9
2017-Aug-13 11:29N 29°42' W 094°55'2 0.4
2017-Aug-13 06:41N 29°43' W 094°57'1 3.2
2017-Aug-13 06:29N 29°43' W 094°56'1 2.4
2017-Aug-13 06:00N 29°42' W 094°55'3 2.3
2017-Aug-13 04:56N 29°41' W 094°58'2 4.0
2017-Aug-13 04:21N 29°42' W 095°01'  
Track history (hours):
 
Tides and Currents Weather Stations Pressure Air Temp Water Temp Dewpoint Dewpoint Depression Visibility Wind Speed Wind Dir Waves Ship Positions

Arabian

Owner: Kirby Inland Marine LP, Houston, TX. More information available from US FCC via Universal Licensing System and Coast Guard Vessel Documentation Center.

Last reported at 2017-Aug-22 19:42 UTC. Time now 2017-Sep-19 17:18 UTC.
Position N 29°46' W 095°06'.
Warning: this ship's position is 27 days out of date.

Length 17 m; draft 2.3 m.

Type: . MMSI: 366995770.

Date/timePositionNaut miles runAvg speedWind from/ knotsBaromVisibWave heightAir tempDewpointWater temp
2017-Aug-22 19:42N 29°46' W 095°06'1 0.3
2017-Aug-22 15:19N 29°45' W 095°06'4 0.7
2017-Aug-22 09:59N 29°47' W 095°04'6 0.1
2017-Aug-20 12:31N 29°42' W 095°01'0 5.7
2017-Aug-20 12:30N 29°42' W 095°01'5 1.3
2017-Aug-20 08:31N 29°45' W 094°56'2 5.5
2017-Aug-20 08:11N 29°43' W 094°57'1 3.8
2017-Aug-20 07:59N 29°42' W 094°56'1 2.2
2017-Aug-20 07:30N 29°42' W 094°55'3 3.4
2017-Aug-20 06:44N 29°41' W 094°58'1 4.6
2017-Aug-20 06:30N 29°42' W 094°60'7 0.4
2017-Aug-19 11:48N 29°46' W 095°06'5 1.1
2017-Aug-19 07:19N 29°45' W 095°11'2 4.9
2017-Aug-19 06:59N 29°44' W 095°09'5 1.3
2017-Aug-19 03:05N 29°47' W 095°04'0 0.2
2017-Aug-19 00:47N 29°47' W 095°04'2 0.2
2017-Aug-18 15:41N 29°46' W 095°06'0 0.0
2017-Aug-18 04:23N 29°46' W 095°05'0 0.3
2017-Aug-18 03:59N 29°46' W 095°05'0 0.0
2017-Aug-17 13:06N 29°46' W 095°05'1 5.0
2017-Aug-17 12:51N 29°45' W 095°04'2 5.0
2017-Aug-17 12:30N 29°44' W 095°03'1 1.9
2017-Aug-17 11:47N 29°44' W 095°01'0 0.0
2017-Aug-17 11:28N 29°44' W 095°01'0 0.2
2017-Aug-17 10:56N 29°44' W 095°01'3 1.7
2017-Aug-17 09:03N 29°46' W 095°04'8 0.8
2017-Aug-16 22:18N 29°44' W 095°14'3 3.7
2017-Aug-16 21:36N 29°45' W 095°11'0 4.9
2017-Aug-16 21:31N 29°45' W 095°10'3 4.8
2017-Aug-16 20:56N 29°44' W 095°07'2 4.8
2017-Aug-16 20:27N 29°46' W 095°05'0 0.0
2017-Aug-16 09:17N 29°46' W 095°06'0 0.0
2017-Aug-15 17:49N 29°46' W 095°05'1 3.7
2017-Aug-15 17:26N 29°45' W 095°06'1 0.4
2017-Aug-15 13:34N 29°46' W 095°05'2 1.1
2017-Aug-15 12:08N 29°45' W 095°06'0 0.0
2017-Aug-15 12:00N 29°45' W 095°06'1 0.1
2017-Aug-14 22:15N 29°45' W 095°06'0 0.0
2017-Aug-14 21:28N 29°45' W 095°06'1 0.0
2017-Aug-13 14:04N 29°46' W 095°04'0 4.6
2017-Aug-13 14:00N 29°46' W 095°04'2 4.6
2017-Aug-13 13:28N 29°44' W 095°02'2 4.2
2017-Aug-13 13:00N 29°42' W 095°01'2 4.4
2017-Aug-13 12:31N 29°41' W 094°59'2 3.8
2017-Aug-13 12:00N 29°41' W 094°57'1 2.9
2017-Aug-13 11:29N 29°42' W 094°55'2 0.4
2017-Aug-13 06:41N 29°43' W 094°57'1 3.2
2017-Aug-13 06:29N 29°43' W 094°56'1 2.4
2017-Aug-13 06:00N 29°42' W 094°55'3 2.3
2017-Aug-13 04:56N 29°41' W 094°58'2 4.0
2017-Aug-13 04:21N 29°42' W 095°01'  

Dump ship's entire track history